sensor_id;sensor_type;location;lat;lon;timestamp;pressure;altitude;pressure_sealevel;temperature;humidity
7834;BME280;3962;42.696;23.354;2023-03-25T00:01:03;94925.44;;;10.58;71.94
7834;BME280;3962;42.696;23.354;2023-03-25T00:03:35;94919.34;;;10.40;73.13
7834;BME280;3962;42.696;23.354;2023-03-25T00:06:05;94917.34;;;10.42;73.71
7834;BME280;3962;42.696;23.354;2023-03-25T00:08:32;94920.22;;;10.48;73.72
7834;BME280;3962;42.696;23.354;2023-03-25T00:11:00;94918.75;;;10.54;73.38
7834;BME280;3962;42.696;23.354;2023-03-25T00:13:28;94913.75;;;10.51;73.30
7834;BME280;3962;42.696;23.354;2023-03-25T00:15:56;94910.56;;;10.47;73.61
7834;BME280;3962;42.696;23.354;2023-03-25T00:18:25;94911.59;;;10.29;74.19
7834;BME280;3962;42.696;23.354;2023-03-25T00:21:00;94908.06;;;10.20;74.58
7834;BME280;3962;42.696;23.354;2023-03-25T00:23:28;94902.63;;;10.30;74.87
7834;BME280;3962;42.696;23.354;2023-03-25T00:25:55;94910.66;;;10.38;74.46
7834;BME280;3962;42.696;23.354;2023-03-25T00:28:25;94910.38;;;10.41;74.46
7834;BME280;3962;42.696;23.354;2023-03-25T00:30:52;94897.88;;;10.41;74.37
7834;BME280;3962;42.696;23.354;2023-03-25T00:33:19;94897.75;;;10.43;74.50
7834;BME280;3962;42.696;23.354;2023-03-25T00:35:50;94895.94;;;10.43;74.30
7834;BME280;3962;42.696;23.354;2023-03-25T00:38:20;94898.16;;;10.30;74.58
7834;BME280;3962;42.696;23.354;2023-03-25T00:40:48;94903.41;;;10.22;75.29
7834;BME280;3962;42.696;23.354;2023-03-25T00:43:17;94897.94;;;10.24;75.10
7834;BME280;3962;42.696;23.354;2023-03-25T00:45:44;94897.41;;;10.20;74.84
7834;BME280;3962;42.696;23.354;2023-03-25T00:48:10;94889.72;;;10.17;74.71
7834;BME280;3962;42.696;23.354;2023-03-25T00:50:37;94901.06;;;10.19;74.86
7834;BME280;3962;42.696;23.354;2023-03-25T00:53:04;94894.91;;;10.19;74.22
7834;BME280;3962;42.696;23.354;2023-03-25T00:55:34;94891.84;;;10.14;74.25
7834;BME280;3962;42.696;23.354;2023-03-25T00:58:00;94885.66;;;10.05;73.83
7834;BME280;3962;42.696;23.354;2023-03-25T01:00:28;94880.88;;;10.09;74.00
7834;BME280;3962;42.696;23.354;2023-03-25T01:02:55;94881.88;;;10.08;73.36
7834;BME280;3962;42.696;23.354;2023-03-25T01:05:21;94881.47;;;10.03;73.88
7834;BME280;3962;42.696;23.354;2023-03-25T01:07:48;94877.25;;;10.00;73.60
7834;BME280;3962;42.696;23.354;2023-03-25T01:10:16;94878.94;;;10.01;74.03
7834;BME280;3962;42.696;23.354;2023-03-25T01:12:44;94871.81;;;10.02;73.60
7834;BME280;3962;42.696;23.354;2023-03-25T01:15:11;94864.22;;;9.89;73.95
7834;BME280;3962;42.696;23.354;2023-03-25T01:17:38;94866.94;;;9.97;73.90
7834;BME280;3962;42.696;23.354;2023-03-25T01:20:06;94868.94;;;9.95;73.46
7834;BME280;3962;42.696;23.354;2023-03-25T01:22:34;94853.06;;;9.86;73.66
7834;BME280;3962;42.696;23.354;2023-03-25T01:25:01;94871.34;;;9.89;73.83
7834;BME280;3962;42.696;23.354;2023-03-25T01:27:28;94867.56;;;9.91;73.96
7834;BME280;3962;42.696;23.354;2023-03-25T01:29:56;94862.38;;;9.90;73.90
7834;BME280;3962;42.696;23.354;2023-03-25T01:32:23;94852.69;;;9.81;74.15
7834;BME280;3962;42.696;23.354;2023-03-25T01:34:50;94846.31;;;9.74;74.19
7834;BME280;3962;42.696;23.354;2023-03-25T01:37:16;94846.03;;;9.59;75.30
7834;BME280;3962;42.696;23.354;2023-03-25T01:39:43;94835.78;;;9.47;76.02
7834;BME280;3962;42.696;23.354;2023-03-25T01:42:11;94841.69;;;9.41;76.64
7834;BME280;3962;42.696;23.354;2023-03-25T01:45:11;94832.91;;;9.40;76.88
7834;BME280;3962;42.696;23.354;2023-03-25T01:47:39;94828.00;;;9.36;76.37
7834;BME280;3962;42.696;23.354;2023-03-25T01:50:06;94831.66;;;9.35;76.54
7834;BME280;3962;42.696;23.354;2023-03-25T01:52:40;94834.63;;;9.32;76.75
7834;BME280;3962;42.696;23.354;2023-03-25T01:55:09;94836.66;;;9.20;76.98
7834;BME280;3962;42.696;23.354;2023-03-25T01:57:39;94840.44;;;9.18;77.47
7834;BME280;3962;42.696;23.354;2023-03-25T02:00:11;94838.28;;;9.04;77.33
7834;BME280;3962;42.696;23.354;2023-03-25T02:02:39;94837.47;;;9.03;78.19
7834;BME280;3962;42.696;23.354;2023-03-25T02:05:08;94838.00;;;9.07;77.71
7834;BME280;3962;42.696;23.354;2023-03-25T02:07:40;94828.22;;;9.07;78.24
7834;BME280;3962;42.696;23.354;2023-03-25T02:10:11;94830.72;;;9.09;77.60
7834;BME280;3962;42.696;23.354;2023-03-25T02:12:38;94829.59;;;9.11;77.20
7834;BME280;3962;42.696;23.354;2023-03-25T02:15:07;94817.69;;;9.15;77.22
7834;BME280;3962;42.696;23.354;2023-03-25T02:17:53;94818.53;;;9.16;77.36
7834;BME280;3962;42.696;23.354;2023-03-25T02:20:56;94823.53;;;9.01;77.55
7834;BME280;3962;42.696;23.354;2023-03-25T02:23:51;94814.94;;;8.90;77.96
7834;BME280;3962;42.696;23.354;2023-03-25T02:26:51;94814.13;;;8.80;78.17
7834;BME280;3962;42.696;23.354;2023-03-25T02:29:36;94820.50;;;8.69;78.53
7834;BME280;3962;42.696;23.354;2023-03-25T02:32:23;94822.88;;;8.63;78.10
7834;BME280;3962;42.696;23.354;2023-03-25T02:35:14;94815.06;;;8.61;78.34
7834;BME280;3962;42.696;23.354;2023-03-25T02:37:55;94815.66;;;8.55;78.68
7834;BME280;3962;42.696;23.354;2023-03-25T02:40:35;94803.53;;;8.53;78.99
7834;BME280;3962;42.696;23.354;2023-03-25T02:43:04;94815.25;;;8.50;79.62
7834;BME280;3962;42.696;23.354;2023-03-25T02:45:39;94815.16;;;8.42;79.18
7834;BME280;3962;42.696;23.354;2023-03-25T02:48:13;94814.84;;;8.45;79.25
7834;BME280;3962;42.696;23.354;2023-03-25T02:50:44;94813.91;;;8.46;79.62
7834;BME280;3962;42.696;23.354;2023-03-25T02:53:17;94812.66;;;8.41;79.16
7834;BME280;3962;42.696;23.354;2023-03-25T02:55:46;94811.41;;;8.35;79.54
7834;BME280;3962;42.696;23.354;2023-03-25T02:58:16;94802.53;;;8.27;80.36
7834;BME280;3962;42.696;23.354;2023-03-25T03:00:45;94807.97;;;8.25;80.69
7834;BME280;3962;42.696;23.354;2023-03-25T03:03:12;94804.09;;;8.20;80.68
7834;BME280;3962;42.696;23.354;2023-03-25T03:05:40;94793.59;;;8.18;80.92
7834;BME280;3962;42.696;23.354;2023-03-25T03:08:23;94793.91;;;8.06;80.86
7834;BME280;3962;42.696;23.354;2023-03-25T03:11:00;94792.38;;;8.13;80.64
7834;BME280;3962;42.696;23.354;2023-03-25T03:13:39;94794.47;;;8.09;81.52
7834;BME280;3962;42.696;23.354;2023-03-25T03:16:14;94796.81;;;8.12;81.09
7834;BME280;3962;42.696;23.354;2023-03-25T03:18:48;94810.06;;;8.12;81.50
7834;BME280;3962;42.696;23.354;2023-03-25T03:21:17;94803.94;;;8.12;81.65
7834;BME280;3962;42.696;23.354;2023-03-25T03:23:56;94802.72;;;8.06;81.41
7834;BME280;3962;42.696;23.354;2023-03-25T03:26:28;94803.53;;;7.97;81.96
7834;BME280;3962;42.696;23.354;2023-03-25T03:29:02;94807.59;;;7.92;81.40
7834;BME280;3962;42.696;23.354;2023-03-25T03:31:35;94807.91;;;7.89;82.51
7834;BME280;3962;42.696;23.354;2023-03-25T03:34:08;94800.94;;;7.88;82.43
7834;BME280;3962;42.696;23.354;2023-03-25T03:36:43;94797.88;;;7.92;82.49
7834;BME280;3962;42.696;23.354;2023-03-25T03:39:17;94800.22;;;7.95;82.61
7834;BME280;3962;42.696;23.354;2023-03-25T03:41:47;94799.09;;;7.98;82.36
7834;BME280;3962;42.696;23.354;2023-03-25T03:44:19;94803.28;;;8.00;82.41
7834;BME280;3962;42.696;23.354;2023-03-25T03:46:52;94809.81;;;7.96;82.38
7834;BME280;3962;42.696;23.354;2023-03-25T03:49:26;94816.53;;;8.00;82.01
7834;BME280;3962;42.696;23.354;2023-03-25T03:51:59;94809.41;;;8.01;82.83
7834;BME280;3962;42.696;23.354;2023-03-25T03:54:30;94808.69;;;8.08;82.18
7834;BME280;3962;42.696;23.354;2023-03-25T03:57:01;94809.13;;;8.04;82.77
7834;BME280;3962;42.696;23.354;2023-03-25T03:59:36;94800.75;;;7.99;82.56
7834;BME280;3962;42.696;23.354;2023-03-25T04:02:10;94803.53;;;7.97;82.49
7834;BME280;3962;42.696;23.354;2023-03-25T04:04:39;94812.03;;;8.01;82.80
7834;BME280;3962;42.696;23.354;2023-03-25T04:07:11;94812.03;;;8.01;82.07
7834;BME280;3962;42.696;23.354;2023-03-25T04:09:49;94808.03;;;7.97;82.44
7834;BME280;3962;42.696;23.354;2023-03-25T04:12:21;94814.00;;;7.99;83.23
7834;BME280;3962;42.696;23.354;2023-03-25T04:14:50;94811.78;;;8.04;82.53
7834;BME280;3962;42.696;23.354;2023-03-25T04:17:17;94812.88;;;8.11;82.95
7834;BME280;3962;42.696;23.354;2023-03-25T04:19:44;94806.16;;;8.16;83.10
7834;BME280;3962;42.696;23.354;2023-03-25T04:22:14;94807.28;;;8.14;82.37
7834;BME280;3962;42.696;23.354;2023-03-25T04:24:44;94806.44;;;8.13;82.80
7834;BME280;3962;42.696;23.354;2023-03-25T04:27:14;94807.41;;;8.12;82.50
7834;BME280;3962;42.696;23.354;2023-03-25T04:29:41;94797.13;;;8.09;82.78
7834;BME280;3962;42.696;23.354;2023-03-25T04:32:10;94803.78;;;8.13;81.84
7834;BME280;3962;42.696;23.354;2023-03-25T04:34:37;94801.13;;;8.13;82.85
7834;BME280;3962;42.696;23.354;2023-03-25T04:37:04;94810.38;;;8.19;81.88
7834;BME280;3962;42.696;23.354;2023-03-25T04:39:31;94813.25;;;8.16;81.74
7834;BME280;3962;42.696;23.354;2023-03-25T04:41:59;94817.19;;;8.12;82.34
7834;BME280;3962;42.696;23.354;2023-03-25T04:44:28;94820.97;;;8.09;82.04
7834;BME280;3962;42.696;23.354;2023-03-25T04:46:58;94817.91;;;8.04;82.82
7834;BME280;3962;42.696;23.354;2023-03-25T04:49:25;94817.75;;;8.06;82.67
7834;BME280;3962;42.696;23.354;2023-03-25T04:51:53;94816.78;;;8.07;83.17
7834;BME280;3962;42.696;23.354;2023-03-25T04:54:21;94817.75;;;8.06;82.15
7834;BME280;3962;42.696;23.354;2023-03-25T04:56:49;94819.72;;;8.04;82.96
7834;BME280;3962;42.696;23.354;2023-03-25T04:59:18;94829.72;;;8.10;82.29
7834;BME280;3962;42.696;23.354;2023-03-25T05:01:48;94814.81;;;8.09;82.48
7834;BME280;3962;42.696;23.354;2023-03-25T05:04:16;94818.88;;;8.13;82.49
7834;BME280;3962;42.696;23.354;2023-03-25T05:06:44;94822.34;;;8.13;82.87
7834;BME280;3962;42.696;23.354;2023-03-25T05:09:15;94815.69;;;8.19;82.07
7834;BME280;3962;42.696;23.354;2023-03-25T05:11:44;94825.69;;;8.25;81.63
7834;BME280;3962;42.696;23.354;2023-03-25T05:14:13;94821.91;;;8.27;81.98
7834;BME280;3962;42.696;23.354;2023-03-25T05:16:42;94828.50;;;8.23;81.77
7834;BME280;3962;42.696;23.354;2023-03-25T05:19:09;94825.97;;;8.22;80.88
7834;BME280;3962;42.696;23.354;2023-03-25T05:21:37;94825.69;;;8.25;81.80
7834;BME280;3962;42.696;23.354;2023-03-25T05:24:06;94816.47;;;8.29;81.36
7834;BME280;3962;42.696;23.354;2023-03-25T05:26:35;94822.56;;;8.39;81.17
7834;BME280;3962;42.696;23.354;2023-03-25T05:29:02;94820.69;;;8.49;81.32
7834;BME280;3962;42.696;23.354;2023-03-25T05:31:29;94827.41;;;8.53;81.03
7834;BME280;3962;42.696;23.354;2023-03-25T05:33:58;94827.50;;;8.61;81.11
7834;BME280;3962;42.696;23.354;2023-03-25T05:36:25;94827.16;;;8.73;80.24
7834;BME280;3962;42.696;23.354;2023-03-25T05:38:53;94818.75;;;8.78;80.46
7834;BME280;3962;42.696;23.354;2023-03-25T05:41:20;94817.09;;;8.77;79.89
7834;BME280;3962;42.696;23.354;2023-03-25T05:43:57;94827.81;;;8.85;79.63
7834;BME280;3962;42.696;23.354;2023-03-25T05:46:25;94831.66;;;8.90;79.29
7834;BME280;3962;42.696;23.354;2023-03-25T05:48:54;94834.41;;;8.98;79.17
7834;BME280;3962;42.696;23.354;2023-03-25T05:51:24;94828.06;;;9.09;78.64
7834;BME280;3962;42.696;23.354;2023-03-25T05:53:51;94824.84;;;9.15;78.26
7834;BME280;3962;42.696;23.354;2023-03-25T05:56:20;94823.44;;;9.11;78.19
7834;BME280;3962;42.696;23.354;2023-03-25T05:58:50;94827.31;;;9.16;77.77
7834;BME280;3962;42.696;23.354;2023-03-25T06:01:18;94829.81;;;9.18;77.71
7834;BME280;3962;42.696;23.354;2023-03-25T06:03:46;94830.50;;;9.20;77.61
7834;BME280;3962;42.696;23.354;2023-03-25T06:06:13;94826.28;;;9.27;77.37
7834;BME280;3962;42.696;23.354;2023-03-25T06:08:45;94825.44;;;9.44;77.38
7834;BME280;3962;42.696;23.354;2023-03-25T06:11:14;94828.56;;;9.57;76.59
7834;BME280;3962;42.696;23.354;2023-03-25T06:13:42;94818.00;;;9.65;76.17
7834;BME280;3962;42.696;23.354;2023-03-25T06:16:15;94820.38;;;9.68;75.48
7834;BME280;3962;42.696;23.354;2023-03-25T06:18:42;94821.41;;;9.75;75.51
7834;BME280;3962;42.696;23.354;2023-03-25T06:21:09;94815.34;;;9.82;75.32
7834;BME280;3962;42.696;23.354;2023-03-25T06:23:37;94832.50;;;9.88;75.07
7834;BME280;3962;42.696;23.354;2023-03-25T06:26:05;94831.03;;;9.93;75.27
7834;BME280;3962;42.696;23.354;2023-03-25T06:28:33;94830.09;;;10.02;75.20
7834;BME280;3962;42.696;23.354;2023-03-25T06:31:00;94828.91;;;10.14;75.09
7834;BME280;3962;42.696;23.354;2023-03-25T06:33:27;94832.34;;;10.32;74.11
7834;BME280;3962;42.696;23.354;2023-03-25T06:35:54;94836.31;;;10.28;73.79
7834;BME280;3962;42.696;23.354;2023-03-25T06:38:21;94834.44;;;10.21;74.22
7834;BME280;3962;42.696;23.354;2023-03-25T06:40:48;94826.78;;;10.18;75.41
7834;BME280;3962;42.696;23.354;2023-03-25T06:43:17;94835.56;;;10.18;75.71
7834;BME280;3962;42.696;23.354;2023-03-25T06:45:44;94832.91;;;10.18;76.56
7834;BME280;3962;42.696;23.354;2023-03-25T06:48:11;94833.28;;;10.23;76.16
7834;BME280;3962;42.696;23.354;2023-03-25T06:50:37;94829.34;;;10.27;76.26
7834;BME280;3962;42.696;23.354;2023-03-25T06:53:04;94831.66;;;10.30;76.21
7834;BME280;3962;42.696;23.354;2023-03-25T06:55:31;94835.38;;;10.37;75.39
7834;BME280;3962;42.696;23.354;2023-03-25T06:57:58;94841.97;;;10.33;75.72
7834;BME280;3962;42.696;23.354;2023-03-25T07:00:26;94843.22;;;10.39;75.40
7834;BME280;3962;42.696;23.354;2023-03-25T07:02:53;94844.69;;;10.41;75.35
7834;BME280;3962;42.696;23.354;2023-03-25T07:05:20;94842.94;;;10.50;75.26
7834;BME280;3962;42.696;23.354;2023-03-25T07:07:48;94834.66;;;10.61;74.62
7834;BME280;3962;42.696;23.354;2023-03-25T07:10:15;94842.41;;;10.72;74.78
7834;BME280;3962;42.696;23.354;2023-03-25T07:12:41;94838.94;;;10.79;73.81
7834;BME280;3962;42.696;23.354;2023-03-25T07:15:09;94833.50;;;10.88;73.56
7834;BME280;3962;42.696;23.354;2023-03-25T07:17:37;94826.91;;;11.08;72.99
7834;BME280;3962;42.696;23.354;2023-03-25T07:20:05;94831.78;;;11.21;72.73
7834;BME280;3962;42.696;23.354;2023-03-25T07:22:32;94823.31;;;11.25;71.84
7834;BME280;3962;42.696;23.354;2023-03-25T07:24:59;94831.13;;;11.35;71.29
7834;BME280;3962;42.696;23.354;2023-03-25T07:27:26;94836.31;;;11.36;71.58
7834;BME280;3962;42.696;23.354;2023-03-25T07:29:52;94839.50;;;11.40;71.57
7834;BME280;3962;42.696;23.354;2023-03-25T07:32:20;94829.22;;;11.53;71.71
7834;BME280;3962;42.696;23.354;2023-03-25T07:34:48;94834.75;;;11.83;70.41
7834;BME280;3962;42.696;23.354;2023-03-25T07:37:15;94833.25;;;12.05;70.04
7834;BME280;3962;42.696;23.354;2023-03-25T07:39:42;94822.94;;;12.26;69.66
7834;BME280;3962;42.696;23.354;2023-03-25T07:42:08;94823.91;;;12.41;68.55
7834;BME280;3962;42.696;23.354;2023-03-25T07:44:35;94820.88;;;12.44;68.28
7834;BME280;3962;42.696;23.354;2023-03-25T07:47:02;94822.19;;;12.64;67.58
7834;BME280;3962;42.696;23.354;2023-03-25T07:49:29;94819.00;;;12.76;67.06
7834;BME280;3962;42.696;23.354;2023-03-25T07:51:57;94825.78;;;13.03;66.87
7834;BME280;3962;42.696;23.354;2023-03-25T07:54:24;94822.03;;;13.20;65.89
7834;BME280;3962;42.696;23.354;2023-03-25T07:56:51;94811.75;;;13.39;65.20
7834;BME280;3962;42.696;23.354;2023-03-25T07:59:19;94815.81;;;13.58;64.32
7834;BME280;3962;42.696;23.354;2023-03-25T08:01:45;94802.16;;;14.20;64.22
7834;BME280;3962;42.696;23.354;2023-03-25T08:04:12;94802.84;;;15.88;59.62
7834;BME280;3962;42.696;23.354;2023-03-25T08:06:39;94803.75;;;17.26;54.63
7834;BME280;3962;42.696;23.354;2023-03-25T08:09:07;94804.13;;;18.23;51.59
7834;BME280;3962;42.696;23.354;2023-03-25T08:11:34;94799.59;;;18.82;49.53
7834;BME280;3962;42.696;23.354;2023-03-25T08:14:01;94799.34;;;19.35;47.96
7834;BME280;3962;42.696;23.354;2023-03-25T08:16:28;94792.06;;;19.86;46.71
7834;BME280;3962;42.696;23.354;2023-03-25T08:18:55;94801.75;;;20.07;45.95
7834;BME280;3962;42.696;23.354;2023-03-25T08:21:21;94795.38;;;19.95;45.91
7834;BME280;3962;42.696;23.354;2023-03-25T08:23:52;94793.53;;;19.89;46.20
7834;BME280;3962;42.696;23.354;2023-03-25T08:26:24;94782.34;;;20.23;45.45
7834;BME280;3962;42.696;23.354;2023-03-25T08:28:51;94785.97;;;20.66;44.24
7834;BME280;3962;42.696;23.354;2023-03-25T08:31:19;94790.88;;;20.51;44.20
7834;BME280;3962;42.696;23.354;2023-03-25T08:33:46;94779.22;;;20.26;44.30
7834;BME280;3962;42.696;23.354;2023-03-25T08:36:13;94783.78;;;19.81;45.44
7834;BME280;3962;42.696;23.354;2023-03-25T08:38:45;94784.19;;;19.41;46.39
7834;BME280;3962;42.696;23.354;2023-03-25T08:41:12;94769.94;;;19.08;47.44
7834;BME280;3962;42.696;23.354;2023-03-25T08:43:40;94770.88;;;19.39;46.90
7834;BME280;3962;42.696;23.354;2023-03-25T08:46:07;94765.47;;;20.27;45.19
7834;BME280;3962;42.696;23.354;2023-03-25T08:48:34;94758.38;;;20.57;44.35
7834;BME280;3962;42.696;23.354;2023-03-25T08:51:01;94765.88;;;20.86;44.27
7834;BME280;3962;42.696;23.354;2023-03-25T08:53:28;94762.53;;;21.27;43.25
7834;BME280;3962;42.696;23.354;2023-03-25T08:55:57;94770.66;;;21.27;43.12
7834;BME280;3962;42.696;23.354;2023-03-25T08:58:25;94761.81;;;20.71;43.97
7834;BME280;3962;42.696;23.354;2023-03-25T09:00:54;94739.19;;;20.10;44.96
7834;BME280;3962;42.696;23.354;2023-03-25T09:03:22;94750.63;;;19.68;46.14
7834;BME280;3962;42.696;23.354;2023-03-25T09:05:49;94746.00;;;19.81;45.52
7834;BME280;3962;42.696;23.354;2023-03-25T09:08:16;94737.44;;;19.91;45.00
7834;BME280;3962;42.696;23.354;2023-03-25T09:10:43;94746.44;;;20.16;45.23
7834;BME280;3962;42.696;23.354;2023-03-25T09:13:10;94743.72;;;20.71;44.47
7834;BME280;3962;42.696;23.354;2023-03-25T09:15:37;94745.75;;;21.00;43.87
7834;BME280;3962;42.696;23.354;2023-03-25T09:18:05;94742.00;;;21.01;43.41
7834;BME280;3962;42.696;23.354;2023-03-25T09:20:32;94737.28;;;20.97;43.55
7834;BME280;3962;42.696;23.354;2023-03-25T09:22:59;94723.97;;;21.13;42.91
7834;BME280;3962;42.696;23.354;2023-03-25T09:25:26;94725.25;;;21.47;42.33
7834;BME280;3962;42.696;23.354;2023-03-25T09:27:52;94725.38;;;21.88;42.44
7834;BME280;3962;42.696;23.354;2023-03-25T09:30:20;94722.06;;;22.15;41.38
7834;BME280;3962;42.696;23.354;2023-03-25T09:32:46;94730.94;;;21.93;41.33
7834;BME280;3962;42.696;23.354;2023-03-25T09:35:15;94720.75;;;21.23;42.62
7834;BME280;3962;42.696;23.354;2023-03-25T09:37:42;94716.91;;;20.94;43.18
7834;BME280;3962;42.696;23.354;2023-03-25T09:40:11;94708.47;;;21.56;42.39
7834;BME280;3962;42.696;23.354;2023-03-25T09:45:33;94705.59;;;21.87;41.97
7834;BME280;3962;42.696;23.354;2023-03-25T09:48:03;94708.13;;;21.17;42.65
7834;BME280;3962;42.696;23.354;2023-03-25T09:50:35;94704.72;;;20.61;43.98
7834;BME280;3962;42.696;23.354;2023-03-25T09:53:06;94690.91;;;20.69;44.35
7834;BME280;3962;42.696;23.354;2023-03-25T09:55:40;94695.47;;;20.93;43.97
7834;BME280;3962;42.696;23.354;2023-03-25T09:58:37;94685.88;;;20.97;42.97
7834;BME280;3962;42.696;23.354;2023-03-25T10:01:16;94682.69;;;20.82;43.72
7834;BME280;3962;42.696;23.354;2023-03-25T10:03:53;94681.84;;;20.81;41.75
7834;BME280;3962;42.696;23.354;2023-03-25T10:06:23;94684.84;;;20.73;42.44
7834;BME280;3962;42.696;23.354;2023-03-25T10:09:11;94680.19;;;21.05;41.88
7834;BME280;3962;42.696;23.354;2023-03-25T10:11:49;94677.75;;;21.33;40.95
7834;BME280;3962;42.696;23.354;2023-03-25T10:14:20;94670.00;;;21.36;39.26
7834;BME280;3962;42.696;23.354;2023-03-25T10:17:00;94668.28;;;20.88;39.98
7834;BME280;3962;42.696;23.354;2023-03-25T10:19:41;94669.66;;;20.97;38.68
7834;BME280;3962;42.696;23.354;2023-03-25T10:22:16;94657.22;;;21.07;38.87
7834;BME280;3962;42.696;23.354;2023-03-25T10:24:47;94658.28;;;21.42;41.95
7834;BME280;3962;42.696;23.354;2023-03-25T10:27:20;94646.56;;;21.78;37.19
7834;BME280;3962;42.696;23.354;2023-03-25T10:29:51;94640.75;;;22.04;38.97
7834;BME280;3962;42.696;23.354;2023-03-25T10:32:29;94636.75;;;22.06;37.87
7834;BME280;3962;42.696;23.354;2023-03-25T10:34:58;94634.25;;;22.05;38.66
7834;BME280;3962;42.696;23.354;2023-03-25T10:37:33;94633.63;;;21.91;37.72
7834;BME280;3962;42.696;23.354;2023-03-25T10:40:12;94628.78;;;21.82;38.05
7834;BME280;3962;42.696;23.354;2023-03-25T10:42:46;94623.19;;;22.06;37.64
7834;BME280;3962;42.696;23.354;2023-03-25T10:45:16;94622.16;;;22.19;37.44
7834;BME280;3962;42.696;23.354;2023-03-25T10:47:45;94620.50;;;22.06;37.00
7834;BME280;3962;42.696;23.354;2023-03-25T10:50:14;94609.25;;;21.91;38.55
7834;BME280;3962;42.696;23.354;2023-03-25T10:52:42;94613.19;;;21.95;38.34
7834;BME280;3962;42.696;23.354;2023-03-25T10:55:20;94620.25;;;22.08;39.09
7834;BME280;3962;42.696;23.354;2023-03-25T10:57:49;94610.31;;;21.90;36.84
7834;BME280;3962;42.696;23.354;2023-03-25T11:00:17;94601.53;;;22.18;36.92
7834;BME280;3962;42.696;23.354;2023-03-25T11:02:45;94594.69;;;22.15;37.23
7834;BME280;3962;42.696;23.354;2023-03-25T11:05:16;94595.19;;;22.35;38.74
7834;BME280;3962;42.696;23.354;2023-03-25T11:07:48;94592.94;;;22.21;39.29
7834;BME280;3962;42.696;23.354;2023-03-25T11:10:19;94594.13;;;22.25;37.50
7834;BME280;3962;42.696;23.354;2023-03-25T11:12:48;94589.91;;;21.76;38.19
7834;BME280;3962;42.696;23.354;2023-03-25T11:15:19;94588.44;;;22.03;38.79
7834;BME280;3962;42.696;23.354;2023-03-25T11:17:54;94578.56;;;22.20;38.40
7834;BME280;3962;42.696;23.354;2023-03-25T11:20:27;94573.97;;;22.32;37.95
7834;BME280;3962;42.696;23.354;2023-03-25T11:23:02;94571.66;;;21.72;39.09
7834;BME280;3962;42.696;23.354;2023-03-25T11:25:32;94569.38;;;22.10;39.59
7834;BME280;3962;42.696;23.354;2023-03-25T11:28:08;94564.19;;;22.31;37.85
7834;BME280;3962;42.696;23.354;2023-03-25T11:30:36;94568.91;;;22.59;36.72
7834;BME280;3962;42.696;23.354;2023-03-25T11:33:04;94555.94;;;22.61;37.17
7834;BME280;3962;42.696;23.354;2023-03-25T11:35:36;94555.94;;;22.72;37.59
7834;BME280;3962;42.696;23.354;2023-03-25T11:38:14;94548.47;;;22.91;37.10
7834;BME280;3962;42.696;23.354;2023-03-25T11:40:50;94547.13;;;23.04;36.29
7834;BME280;3962;42.696;23.354;2023-03-25T11:43:19;94542.56;;;22.94;36.58
7834;BME280;3962;42.696;23.354;2023-03-25T11:45:47;94539.94;;;22.59;36.75
7834;BME280;3962;42.696;23.354;2023-03-25T11:48:16;94529.53;;;22.68;36.77
7834;BME280;3962;42.696;23.354;2023-03-25T11:50:45;94527.75;;;22.62;36.71
7834;BME280;3962;42.696;23.354;2023-03-25T11:53:18;94523.13;;;22.85;36.41
7834;BME280;3962;42.696;23.354;2023-03-25T11:55:47;94512.25;;;23.24;36.02
7834;BME280;3962;42.696;23.354;2023-03-25T11:58:17;94517.19;;;23.39;35.55
7834;BME280;3962;42.696;23.354;2023-03-25T12:00:47;94516.06;;;23.12;35.38
7834;BME280;3962;42.696;23.354;2023-03-25T12:03:18;94512.34;;;23.02;36.28
7834;BME280;3962;42.696;23.354;2023-03-25T12:05:57;94508.41;;;23.20;36.18
7834;BME280;3962;42.696;23.354;2023-03-25T12:08:30;94513.69;;;22.88;36.13
7834;BME280;3962;42.696;23.354;2023-03-25T12:11:11;94502.91;;;22.53;36.83
7834;BME280;3962;42.696;23.354;2023-03-25T12:13:48;94488.06;;;21.75;38.08
7834;BME280;3962;42.696;23.354;2023-03-25T12:16:29;94494.81;;;21.43;37.67
7834;BME280;3962;42.696;23.354;2023-03-25T12:19:10;94499.72;;;21.35;38.16
7834;BME280;3962;42.696;23.354;2023-03-25T12:21:52;94499.66;;;21.41;38.82
7834;BME280;3962;42.696;23.354;2023-03-25T12:24:39;94500.28;;;21.14;38.07
7834;BME280;3962;42.696;23.354;2023-03-25T12:27:22;94496.00;;;21.06;39.34
7834;BME280;3962;42.696;23.354;2023-03-25T12:29:56;94498.31;;;21.21;39.33
7834;BME280;3962;42.696;23.354;2023-03-25T12:32:33;94498.56;;;21.31;38.68
7834;BME280;3962;42.696;23.354;2023-03-25T12:35:15;94497.06;;;21.05;38.29
7834;BME280;3962;42.696;23.354;2023-03-25T12:37:59;94504.00;;;21.01;38.44
7834;BME280;3962;42.696;23.354;2023-03-25T12:40:49;94497.41;;;21.09;38.68
7834;BME280;3962;42.696;23.354;2023-03-25T12:43:28;94495.66;;;21.14;38.51
7834;BME280;3962;42.696;23.354;2023-03-25T12:46:11;94497.84;;;20.94;38.03
7834;BME280;3962;42.696;23.354;2023-03-25T12:48:50;94497.16;;;20.99;38.69
7834;BME280;3962;42.696;23.354;2023-03-25T12:51:28;94495.63;;;21.03;39.35
7834;BME280;3962;42.696;23.354;2023-03-25T12:54:07;94500.66;;;20.99;38.62
7834;BME280;3962;42.696;23.354;2023-03-25T12:56:47;94475.88;;;21.02;38.23
7834;BME280;3962;42.696;23.354;2023-03-25T12:59:31;94492.53;;;21.17;38.99
7834;BME280;3962;42.696;23.354;2023-03-25T13:02:14;94497.75;;;21.01;40.24
7834;BME280;3962;42.696;23.354;2023-03-25T13:04:57;94497.22;;;20.92;38.34
7834;BME280;3962;42.696;23.354;2023-03-25T13:07:31;94502.56;;;20.63;38.96
7834;BME280;3962;42.696;23.354;2023-03-25T13:10:04;94493.06;;;20.42;39.53
7834;BME280;3962;42.696;23.354;2023-03-25T13:12:37;94496.44;;;20.38;39.04
7834;BME280;3962;42.696;23.354;2023-03-25T13:15:13;94496.28;;;20.33;40.76
7834;BME280;3962;42.696;23.354;2023-03-25T13:17:46;94501.09;;;20.31;39.77
7834;BME280;3962;42.696;23.354;2023-03-25T13:20:15;94489.09;;;20.27;40.66
7834;BME280;3962;42.696;23.354;2023-03-25T13:22:45;94487.38;;;20.32;41.76
7834;BME280;3962;42.696;23.354;2023-03-25T13:25:25;94497.19;;;20.27;40.42
7834;BME280;3962;42.696;23.354;2023-03-25T13:27:57;94499.91;;;20.27;41.06
7834;BME280;3962;42.696;23.354;2023-03-25T13:30:31;94507.69;;;20.17;41.66
7834;BME280;3962;42.696;23.354;2023-03-25T13:33:04;94502.34;;;20.10;43.67
7834;BME280;3962;42.696;23.354;2023-03-25T13:35:37;94505.22;;;19.91;42.79
7834;BME280;3962;42.696;23.354;2023-03-25T13:38:12;94496.59;;;19.82;43.49